createdAt,value
2017-11-27T00:02:01.934Z,73.60
2017-11-27T00:04:29.634Z,73.70
2017-11-27T00:06:58.821Z,73.80
2017-11-27T00:09:26.493Z,73.90
2017-11-27T00:11:54.877Z,74.00
2017-11-27T00:14:23.360Z,74.00
2017-11-27T00:16:51.741Z,74.00
2017-11-27T00:19:20.871Z,74.00
2017-11-27T00:21:48.563Z,74.00
2017-11-27T00:24:16.261Z,74.00
2017-11-27T00:26:45.376Z,74.00
2017-11-27T00:29:13.739Z,74.00
2017-11-27T00:31:42.940Z,73.90
2017-11-27T00:34:11.321Z,73.70
2017-11-27T00:36:40.451Z,73.80
2017-11-27T00:39:08.045Z,73.90
2017-11-27T00:41:35.752Z,73.80
2017-11-27T00:44:04.129Z,73.90
2017-11-27T00:46:32.517Z,74.10
2017-11-27T00:49:00.989Z,74.10
2017-11-27T00:51:29.383Z,74.20
2017-11-27T00:53:57.733Z,74.20
2017-11-27T00:56:29.276Z,74.20
2017-11-27T00:58:56.866Z,74.10
2017-11-27T01:01:25.238Z,74.60
2017-11-27T01:03:53.598Z,74.20
2017-11-27T01:06:21.190Z,74.20
2017-11-27T01:08:48.841Z,74.10
2017-11-27T01:11:17.206Z,74.00
2017-11-27T01:13:44.831Z,74.00
2017-11-27T01:16:12.426Z,73.90
2017-11-27T01:18:40.114Z,73.70
2017-11-27T01:21:08.498Z,73.70
2017-11-27T01:23:36.979Z,73.70
2017-11-27T01:26:05.357Z,74.10
2017-11-27T01:28:33.743Z,73.50
2017-11-27T01:31:02.102Z,73.40
2017-11-27T01:33:29.777Z,73.40
2017-11-27T01:35:57.359Z,73.40
2017-11-27T01:38:25.742Z,73.20
2017-11-27T01:40:54.097Z,73.00
2017-11-27T01:43:22.486Z,73.10
2017-11-27T01:45:50.967Z,73.10
2017-11-27T01:48:19.322Z,73.10
2017-11-27T01:50:46.937Z,73.10
2017-11-27T01:53:14.532Z,73.20
2017-11-27T01:55:42.229Z,73.10
2017-11-27T01:58:09.887Z,73.00
2017-11-27T02:00:39.022Z,72.80
2017-11-27T02:03:06.654Z,72.80
2017-11-27T02:05:35.134Z,72.80
2017-11-27T02:08:03.494Z,72.60
2017-11-27T02:10:31.105Z,72.60
2017-11-27T02:12:58.738Z,72.50
2017-11-27T02:15:26.340Z,73.50
2017-11-27T02:17:53.961Z,72.80
2017-11-27T02:20:22.438Z,72.80
2017-11-27T02:22:50.036Z,72.80
2017-11-27T02:25:17.624Z,72.60
2017-11-27T02:27:45.237Z,72.70
2017-11-27T02:30:13.610Z,73.00
2017-11-27T02:32:42.084Z,72.80
2017-11-27T02:35:11.174Z,72.70
2017-11-27T02:37:40.479Z,72.70
2017-11-27T02:40:08.150Z,72.60
2017-11-27T02:42:37.345Z,72.40
2017-11-27T02:45:05.014Z,72.40
2017-11-27T02:47:34.136Z,72.10
2017-11-27T02:50:02.594Z,72.20
2017-11-27T02:52:31.078Z,71.80
2017-11-27T02:54:59.457Z,72.00
2017-11-27T02:57:27.838Z,71.90
2017-11-27T02:59:55.440Z,71.90
2017-11-27T03:02:23.067Z,71.70
2017-11-27T03:04:51.455Z,71.70
2017-11-27T03:07:19.822Z,71.80
2017-11-27T03:09:48.196Z,72.20
2017-11-27T03:12:16.582Z,71.70
2017-11-27T03:14:45.062Z,71.80
2017-11-27T03:17:12.645Z,71.80
2017-11-27T03:19:41.018Z,71.70
2017-11-27T03:22:09.370Z,71.70
2017-11-27T03:24:37.046Z,71.60
2017-11-27T03:27:05.405Z,71.60
2017-11-27T03:29:33.018Z,71.50
2017-11-27T03:32:00.618Z,71.30
2017-11-27T03:34:28.234Z,71.40
2017-11-27T03:36:56.593Z,71.20
2017-11-27T03:39:24.970Z,72.00
2017-11-27T03:41:53.317Z,71.10
2017-11-27T03:44:21.009Z,71.10
2017-11-27T03:46:48.681Z,71.00
2017-11-27T03:49:17.058Z,71.10
2017-11-27T03:51:45.437Z,71.10
2017-11-27T03:54:14.541Z,70.80
2017-11-27T03:56:43.010Z,71.50
2017-11-27T03:59:10.677Z,71.00
2017-11-27T04:01:38.294Z,71.10
2017-11-27T04:04:05.906Z,71.00
2017-11-27T04:06:35.034Z,70.90
2017-11-27T04:09:02.623Z,70.90
2017-11-27T04:11:30.243Z,71.00
2017-11-27T04:13:58.589Z,71.10
2017-11-27T04:16:26.270Z,71.10
2017-11-27T04:18:54.651Z,70.90
2017-11-27T04:21:22.307Z,70.90
2017-11-27T04:23:49.928Z,70.80
2017-11-27T04:26:17.543Z,70.70
2017-11-27T04:28:45.943Z,70.80
2017-11-27T04:31:13.582Z,70.70
2017-11-27T04:33:42.123Z,70.50
2017-11-27T04:36:09.725Z,70.40
2017-11-27T04:38:38.837Z,70.30
2017-11-27T04:41:07.297Z,70.30
2017-11-27T04:43:36.497Z,70.20
2017-11-27T04:46:04.086Z,70.20
2017-11-27T04:48:32.468Z,70.30
2017-11-27T04:51:00.846Z,70.10
2017-11-27T04:53:29.249Z,70.10
2017-11-27T04:55:56.853Z,70.10
2017-11-27T04:58:24.443Z,70.20
2017-11-27T05:00:52.905Z,70.20
2017-11-27T05:03:20.554Z,70.20
2017-11-27T05:05:48.228Z,70.00
2017-11-27T05:08:15.813Z,70.00
2017-11-27T05:10:44.213Z,70.30
2017-11-27T05:13:11.806Z,70.30
2017-11-27T05:15:39.427Z,70.30
2017-11-27T05:18:07.028Z,70.30
2017-11-27T05:20:34.642Z,70.10
2017-11-27T05:23:02.995Z,70.20
2017-11-27T05:25:30.604Z,70.20
2017-11-27T05:27:58.227Z,70.20
2017-11-27T05:30:25.953Z,70.20
2017-11-27T05:32:53.650Z,70.90
2017-11-27T05:35:21.302Z,70.10
2017-11-27T05:37:48.922Z,70.00
2017-11-27T05:40:16.512Z,70.00
2017-11-27T05:42:44.147Z,70.00
2017-11-27T05:45:11.729Z,70.00
2017-11-27T05:47:39.344Z,70.00
2017-11-27T05:50:07.702Z,69.80
2017-11-27T05:52:35.308Z,69.70
2017-11-27T05:55:02.913Z,69.80
2017-11-27T05:57:30.558Z,69.80
2017-11-27T05:59:58.153Z,69.90
2017-11-27T06:02:25.820Z,70.00
2017-11-27T06:04:54.262Z,71.00
2017-11-27T06:07:21.878Z,70.20
2017-11-27T06:09:49.520Z,70.10
2017-11-27T06:12:17.190Z,70.10
2017-11-27T06:14:46.389Z,70.00
2017-11-27T06:17:14.799Z,69.50
2017-11-27T06:19:42.389Z,70.00
2017-11-27T06:22:09.973Z,70.30
2017-11-27T06:24:37.586Z,70.20
2017-11-27T06:27:05.183Z,70.30
2017-11-27T06:29:32.807Z,70.30
2017-11-27T06:32:00.404Z,70.00
2017-11-27T06:34:28.014Z,69.80
2017-11-27T06:36:56.372Z,70.10
2017-11-27T06:39:24.058Z,70.00
2017-11-27T06:41:52.413Z,69.80
2017-11-27T06:44:20.091Z,69.80
2017-11-27T06:46:48.442Z,69.70
2017-11-27T06:49:16.129Z,69.90
2017-11-27T06:51:43.807Z,69.90
2017-11-27T06:54:12.223Z,70.30
2017-11-27T06:56:39.898Z,70.30
2017-11-27T06:59:07.598Z,70.30
2017-11-27T07:01:35.265Z,70.10
2017-11-27T07:04:02.930Z,70.20
2017-11-27T07:06:31.414Z,70.20
2017-11-27T07:08:59.769Z,70.70
2017-11-27T07:11:27.389Z,69.90
2017-11-27T07:13:54.989Z,69.70
2017-11-27T07:16:22.609Z,69.80
2017-11-27T07:18:50.244Z,69.80
2017-11-27T07:21:18.721Z,69.50
2017-11-27T07:23:46.311Z,69.40
2017-11-27T07:26:13.934Z,70.60
2017-11-27T07:28:41.605Z,69.80
2017-11-27T07:31:09.261Z,69.50
2017-11-27T07:33:36.934Z,69.70
2017-11-27T08:31:08.230Z,73.80
2017-11-27T08:33:35.894Z,73.80
2017-11-27T08:36:03.557Z,73.90
2017-11-27T08:38:31.150Z,72.80
2017-11-27T08:40:58.762Z,72.20
2017-11-27T08:43:26.353Z,72.00
2017-11-27T08:45:54.822Z,71.00
2017-11-27T08:48:22.418Z,71.00
2017-11-27T08:50:50.030Z,70.50
2017-11-27T08:53:17.631Z,70.50
2017-11-27T08:55:46.100Z,70.10
2017-11-27T08:58:14.458Z,69.90
2017-11-27T09:00:42.133Z,69.90
2017-11-27T09:03:09.793Z,69.50
2017-11-27T09:05:37.386Z,69.50
2017-11-27T09:08:05.017Z,69.00
2017-11-27T09:10:33.398Z,68.30
2017-11-27T09:13:01.017Z,68.30
2017-11-27T09:15:28.605Z,68.10
2017-11-27T09:17:56.226Z,68.70
2017-11-27T09:20:23.821Z,67.50
2017-11-27T09:22:51.438Z,67.40
2017-11-27T09:25:19.022Z,67.60
2017-11-27T09:27:46.731Z,67.70
2017-11-27T09:30:15.198Z,67.60
2017-11-27T09:32:42.874Z,67.50
2017-11-27T09:35:10.543Z,67.60
2017-11-27T09:37:38.909Z,68.30
2017-11-27T09:40:06.539Z,68.00
2017-11-27T09:42:34.133Z,68.10
2017-11-27T09:45:01.803Z,68.20
2017-11-27T09:47:30.181Z,68.20
2017-11-27T09:49:57.841Z,68.10
2017-11-27T09:52:27.047Z,68.40
2017-11-27T09:54:55.527Z,69.20
2017-11-27T09:57:23.882Z,68.50
2017-11-27T09:59:51.565Z,68.50
2017-11-27T10:02:19.229Z,68.40
2017-11-27T10:04:46.833Z,68.40
2017-11-27T10:07:14.458Z,68.30
2017-11-27T10:09:43.575Z,68.30
2017-11-27T10:12:11.930Z,68.70
2017-11-27T10:14:42.057Z,68.90
2017-11-27T10:17:10.418Z,68.90
2017-11-27T10:19:38.094Z,68.90
2017-11-27T10:22:06.574Z,68.90
2017-11-27T10:24:34.925Z,68.80
2017-11-27T10:27:02.617Z,68.70
2017-11-27T10:29:30.969Z,69.10
2017-11-27T10:31:58.659Z,69.20
2017-11-27T10:34:27.036Z,68.60
2017-11-27T10:36:56.158Z,69.10
2017-11-27T10:39:24.618Z,69.30
2017-11-27T10:41:52.994Z,70.00
2017-11-27T10:44:20.591Z,69.20
2017-11-27T10:46:48.225Z,70.50
2017-11-27T10:49:16.574Z,69.70
2017-11-27T10:51:44.183Z,69.60
2017-11-27T10:54:12.642Z,69.50
2017-11-27T10:56:41.127Z,69.50
2017-11-27T10:59:10.223Z,69.30
2017-11-27T11:01:38.602Z,69.50
2017-11-27T11:04:06.209Z,69.40
2017-11-27T11:06:33.797Z,69.60
2017-11-27T11:09:01.396Z,69.40
2017-11-27T11:11:29.761Z,69.90
2017-11-27T11:13:58.135Z,69.00
2017-11-27T11:16:25.823Z,69.20
2017-11-27T11:18:54.201Z,69.20
2017-11-27T11:21:22.561Z,68.80
2017-11-27T11:23:50.226Z,68.80
2017-11-27T11:26:18.580Z,68.50
2017-11-27T11:28:46.273Z,68.50
2017-11-27T11:31:15.470Z,68.10
2017-11-27T11:33:43.842Z,68.00
2017-11-27T11:36:11.431Z,67.90
2017-11-27T11:38:39.841Z,67.80
2017-11-27T11:41:07.429Z,67.80
2017-11-27T11:43:35.013Z,67.50
2017-11-27T11:46:03.456Z,67.40
2017-11-27T11:48:31.038Z,67.40
2017-11-27T11:50:58.716Z,67.40
2017-11-27T11:53:27.806Z,67.20
2017-11-27T11:55:55.413Z,67.20
2017-11-27T11:58:23.022Z,66.90
2017-11-27T12:00:50.621Z,66.70
2017-11-27T12:03:18.973Z,66.70
2017-11-27T12:05:47.341Z,66.60
2017-11-27T12:08:15.023Z,66.60
2017-11-27T12:10:44.146Z,66.30
2017-11-27T12:13:12.593Z,66.40
2017-11-27T12:15:40.254Z,66.30
2017-11-27T12:18:07.926Z,66.10
2017-11-27T12:20:36.275Z,65.70
2017-11-27T12:23:03.966Z,65.80
2017-11-27T12:25:33.054Z,65.10
2017-11-27T12:28:01.445Z,65.60
2017-11-27T12:30:29.106Z,64.80
2017-11-27T12:32:58.217Z,65.00
2017-11-27T12:35:26.556Z,64.70
2017-11-27T12:37:54.158Z,64.60
2017-11-27T12:40:22.506Z,64.80
2017-11-27T12:42:50.117Z,64.70
2017-11-27T12:45:17.738Z,64.60
2017-11-27T12:47:46.114Z,64.80
2017-11-27T12:50:13.751Z,64.80
2017-11-27T12:52:41.353Z,64.70
2017-11-27T12:55:08.938Z,64.70
2017-11-27T12:57:36.670Z,64.70
2017-11-27T13:00:04.334Z,64.70
2017-11-27T13:02:33.430Z,64.80
2017-11-27T13:05:01.034Z,64.80
2017-11-27T13:07:28.617Z,64.80
2017-11-27T13:09:56.222Z,64.90
2017-11-27T13:12:23.881Z,64.90
2017-11-27T13:14:52.358Z,65.30
2017-11-27T13:17:20.739Z,66.30
2017-11-27T13:19:49.158Z,66.00
2017-11-27T13:22:16.742Z,66.00
2017-11-27T13:24:44.442Z,66.20
2017-11-27T13:27:13.533Z,66.60
2017-11-27T13:29:41.909Z,66.70
2017-11-27T13:32:09.490Z,66.80
2017-11-27T13:34:37.881Z,67.90
2017-11-27T13:37:06.349Z,67.20
2017-11-27T13:39:34.723Z,68.50
2017-11-27T13:42:03.922Z,67.70
2017-11-27T13:44:31.582Z,67.70
2017-11-27T13:46:59.245Z,68.00
2017-11-27T13:49:28.441Z,68.50
2017-11-27T13:51:56.050Z,68.40
2017-11-27T13:54:23.670Z,68.90
2017-11-27T13:56:52.048Z,69.50
2017-11-27T13:59:19.709Z,69.50
2017-11-27T14:01:48.822Z,69.90
2017-11-27T14:04:17.168Z,70.10
2017-11-27T14:06:44.777Z,70.10
2017-11-27T14:09:13.198Z,70.10
2017-11-27T14:11:40.893Z,70.00
2017-11-27T14:14:09.370Z,70.60
2017-11-27T14:16:36.957Z,70.50
2017-11-27T14:19:05.434Z,70.70
2017-11-27T14:21:33.795Z,70.80
2017-11-27T14:24:01.457Z,70.80
2017-11-27T14:26:29.817Z,71.00
2017-11-27T14:28:57.430Z,71.10
2017-11-27T14:31:25.022Z,71.10
2017-11-27T14:33:52.625Z,71.10
2017-11-27T14:36:20.978Z,71.50
2017-11-27T14:38:49.277Z,71.50
2017-11-27T14:41:18.482Z,71.70
2017-11-27T14:43:46.959Z,72.10
2017-11-27T14:46:15.338Z,72.50
2017-11-27T14:48:43.722Z,72.70
2017-11-27T14:51:12.815Z,72.80
2017-11-27T14:53:41.294Z,72.80
2017-11-27T14:56:08.877Z,72.80
2017-11-27T14:58:37.229Z,73.00
2017-11-27T15:01:04.898Z,72.90
2017-11-27T15:03:32.486Z,73.30
2017-11-27T15:06:00.903Z,73.40
2017-11-27T15:08:28.606Z,73.40
2017-11-27T15:10:57.086Z,73.60
2017-11-27T15:13:25.451Z,73.70
2017-11-27T15:15:53.126Z,73.70
2017-11-27T15:18:20.789Z,73.90
2017-11-27T15:20:48.449Z,74.00
2017-11-27T15:23:16.118Z,74.00
2017-11-27T15:25:44.493Z,73.70
2017-11-27T15:28:12.082Z,74.20
2017-11-27T15:30:40.434Z,74.70
2017-11-27T15:33:08.093Z,74.70
2017-11-27T15:35:35.758Z,74.70
2017-11-27T15:38:03.381Z,74.70
2017-11-27T15:40:30.981Z,74.60
2017-11-27T15:42:58.590Z,74.80
2017-11-27T15:45:26.206Z,74.80
2017-11-27T15:47:53.821Z,74.90
2017-11-27T15:50:21.412Z,75.00
2017-11-27T15:52:49.027Z,75.30
2017-11-27T15:55:16.619Z,75.40
2017-11-27T15:57:44.322Z,75.40
2017-11-27T16:00:11.910Z,75.40
2017-11-27T16:02:39.517Z,75.60
2017-11-27T16:05:07.133Z,75.70
2017-11-27T16:07:34.742Z,76.00
2017-11-27T16:10:02.340Z,76.10
2017-11-27T16:12:29.985Z,76.30
2017-11-27T16:14:57.572Z,76.50
2017-11-27T16:17:25.926Z,76.60
2017-11-27T16:19:53.534Z,76.50
2017-11-27T16:22:21.249Z,76.70
2017-11-27T16:24:48.862Z,76.90
2017-11-27T16:27:16.487Z,76.70
2017-11-27T16:29:44.865Z,76.70
2017-11-27T16:32:13.320Z,76.70
2017-11-27T16:34:40.929Z,76.70
2017-11-27T16:37:08.515Z,76.80
2017-11-27T16:39:36.117Z,77.00
2017-11-27T16:42:03.782Z,77.10
2017-11-27T16:44:31.446Z,77.20
2017-11-27T16:46:59.034Z,77.30
2017-11-27T16:49:27.409Z,77.30
2017-11-27T16:51:55.762Z,77.30
2017-11-27T16:54:23.435Z,77.30
2017-11-27T16:56:51.795Z,77.20
2017-11-27T16:59:19.406Z,77.20
2017-11-27T17:01:47.031Z,77.10
2017-11-27T17:04:14.694Z,77.10
2017-11-27T17:06:42.277Z,77.00
2017-11-27T17:09:10.654Z,77.20
2017-11-27T17:11:39.006Z,77.20
2017-11-27T17:14:06.638Z,77.20
2017-11-27T17:16:34.238Z,77.20
2017-11-27T17:19:01.842Z,77.20
2017-11-27T17:21:29.450Z,77.20
2017-11-27T17:23:57.041Z,77.20
2017-11-27T17:26:25.502Z,77.20
2017-11-27T17:28:53.090Z,77.20
2017-11-27T17:31:20.706Z,77.20
2017-11-27T17:33:48.385Z,77.20
2017-11-27T17:36:16.774Z,77.10
2017-11-27T17:38:45.127Z,77.20
2017-11-27T17:41:12.737Z,77.10
2017-11-27T17:46:13.262Z,77.40
2017-11-27T17:48:41.634Z,78.40
2017-11-27T17:51:09.237Z,77.50
2017-11-27T17:53:36.830Z,77.40
2017-11-27T17:56:04.454Z,77.50
2017-11-27T17:58:32.082Z,77.50
2017-11-27T18:00:59.666Z,77.50
2017-11-27T18:03:28.038Z,77.50
2017-11-27T18:05:56.398Z,77.60
2017-11-27T18:08:24.057Z,77.60
2017-11-27T18:10:51.725Z,77.60
2017-11-27T18:13:19.338Z,77.60
2017-11-27T18:15:46.930Z,77.70
2017-11-27T18:18:14.609Z,77.70
2017-11-27T18:20:42.958Z,77.60
2017-11-27T18:23:10.635Z,77.70
2017-11-27T18:25:38.321Z,77.50
2017-11-27T18:28:05.989Z,77.60
2017-11-27T18:30:34.357Z,77.70
2017-11-27T18:33:02.022Z,77.60
2017-11-27T18:35:29.612Z,77.70
2017-11-27T18:37:57.230Z,77.90
2017-11-27T18:40:24.821Z,78.10
2017-11-27T18:42:53.290Z,78.30
2017-11-27T18:45:20.882Z,78.30
2017-11-27T18:47:48.513Z,78.50
2017-11-27T18:50:16.893Z,78.10
2017-11-27T18:52:44.551Z,78.10
2017-11-27T18:55:12.162Z,77.30
2017-11-27T18:57:39.754Z,78.10
2017-11-27T19:00:07.367Z,78.30
2017-11-27T19:02:34.997Z,78.50
2017-11-27T19:05:02.606Z,78.50
2017-11-27T19:07:30.193Z,78.40
2017-11-27T19:09:57.813Z,78.50
2017-11-27T19:12:25.397Z,78.40
2017-11-27T19:14:53.006Z,78.40
2017-11-27T19:17:20.669Z,78.40
2017-11-27T19:19:49.254Z,78.50
2017-11-27T19:22:16.846Z,78.50
2017-11-27T19:24:44.574Z,78.60
2017-11-27T19:27:12.163Z,78.80
2017-11-27T19:29:40.522Z,79.00
2017-11-27T19:32:08.904Z,79.10
2017-11-27T19:34:36.561Z,79.00
2017-11-27T19:37:04.176Z,79.30
2017-11-27T19:39:31.770Z,79.10
2017-11-27T19:41:59.440Z,79.20
2017-11-27T19:44:27.033Z,79.10
2017-11-27T19:46:55.412Z,79.20
2017-11-27T19:49:23.762Z,79.50
2017-11-27T19:51:51.421Z,79.50
2017-11-27T19:54:19.093Z,79.60
2017-11-27T19:56:46.705Z,79.70
2017-11-27T19:59:14.318Z,79.70
2017-11-27T20:01:42.694Z,79.90
2017-11-27T20:04:10.363Z,80.70
2017-11-27T20:06:38.018Z,80.60
2017-11-27T20:09:05.688Z,79.90
2017-11-27T20:11:34.043Z,80.00
2017-11-27T20:14:01.655Z,80.00
2017-11-27T20:16:29.270Z,80.00
2017-11-27T20:18:56.893Z,80.10
2017-11-27T20:21:24.481Z,80.90
2017-11-27T20:23:52.095Z,80.10
2017-11-27T20:26:20.550Z,80.00
2017-11-27T20:28:48.158Z,80.00
2017-11-27T20:31:15.839Z,80.00
2017-11-27T20:33:43.538Z,80.00
2017-11-27T20:36:11.134Z,80.00
2017-11-27T20:38:38.741Z,80.60
2017-11-27T20:41:06.326Z,80.00
2017-11-27T20:43:34.674Z,80.00
2017-11-27T20:46:02.280Z,80.00
2017-11-27T20:48:30.629Z,79.90
2017-11-27T20:50:58.249Z,79.90
2017-11-27T20:53:25.837Z,79.90
2017-11-27T20:55:53.528Z,80.00
2017-11-27T20:58:22.614Z,80.00
2017-11-27T21:00:50.281Z,80.00
2017-11-27T21:03:17.871Z,80.10
2017-11-27T21:05:46.245Z,80.20
2017-11-27T21:08:14.597Z,80.30
2017-11-27T21:10:42.203Z,80.30
2017-11-27T21:13:09.836Z,80.40
2017-11-27T21:15:38.950Z,80.40
2017-11-27T21:18:07.413Z,80.50
2017-11-27T21:20:36.510Z,81.40
2017-11-27T21:23:04.985Z,81.00
2017-11-27T21:25:32.653Z,80.60
2017-11-27T21:28:01.025Z,80.80
2017-11-27T21:30:28.615Z,80.70
2017-11-27T21:32:56.990Z,81.10
2017-11-27T21:35:25.450Z,81.10
2017-11-27T21:37:53.062Z,81.10
2017-11-27T21:40:20.669Z,81.10
2017-11-27T21:42:48.278Z,81.30
2017-11-27T21:45:15.865Z,81.30
2017-11-27T21:47:43.482Z,81.20
2017-11-27T21:50:11.825Z,81.30
2017-11-27T21:52:39.498Z,81.30
2017-11-27T21:55:07.094Z,81.20
2017-11-27T21:57:34.822Z,81.20
2017-11-27T22:00:03.178Z,81.20
2017-11-27T22:02:30.766Z,81.20
2017-11-27T22:04:59.885Z,81.30
2017-11-27T22:07:28.234Z,81.30
2017-11-27T22:09:55.841Z,81.30
2017-11-27T22:12:23.465Z,81.20
2017-11-27T22:14:51.130Z,81.30
2017-11-27T22:17:19.505Z,81.30
2017-11-27T22:19:48.619Z,82.10
2017-11-27T22:22:16.967Z,81.20
2017-11-27T22:24:44.581Z,81.20
2017-11-27T22:27:12.202Z,81.10
2017-11-27T22:29:41.406Z,80.90
2017-11-27T22:32:09.754Z,80.90
2017-11-27T22:34:37.455Z,80.90
2017-11-27T22:37:06.646Z,80.70
2017-11-27T22:39:35.031Z,80.80
2017-11-27T22:42:02.637Z,80.70
2017-11-27T22:44:30.222Z,80.00
2017-11-27T22:46:57.913Z,80.70
2017-11-27T22:49:25.574Z,80.90
2017-11-27T22:51:53.953Z,81.70
2017-11-27T22:54:22.329Z,80.80
2017-11-27T22:56:49.937Z,80.80
2017-11-27T22:59:17.553Z,80.80
2017-11-27T23:01:45.165Z,80.80
2017-11-27T23:04:12.779Z,80.80
2017-11-27T23:06:41.982Z,80.70
2017-11-27T23:09:10.330Z,80.70
2017-11-27T23:11:38.021Z,80.70
2017-11-27T23:14:07.224Z,80.60
2017-11-27T23:16:35.579Z,80.60
2017-11-27T23:19:03.195Z,80.50
2017-11-27T23:21:30.779Z,80.50
2017-11-27T23:23:58.481Z,80.50
2017-11-27T23:26:27.680Z,80.70
2017-11-27T23:28:56.049Z,80.80
2017-11-27T23:31:23.625Z,80.80
2017-11-27T23:33:51.992Z,80.50
2017-11-27T23:36:19.565Z,81.40
2017-11-27T23:38:47.933Z,80.70
2017-11-27T23:41:16.431Z,80.80
2017-11-27T23:43:44.901Z,80.30
2017-11-27T23:46:12.483Z,80.90
2017-11-27T23:48:40.934Z,80.90
2017-11-27T23:51:08.514Z,80.90
2017-11-27T23:53:37.700Z,80.60
2017-11-27T23:56:05.366Z,80.50
2017-11-27T23:58:32.985Z,80.40
